sensor_id;sensor_type;location;lat;lon;timestamp;P1;durP1;ratioP1;P2;durP2;ratioP2
51179;SDS011;37243;49.814;8.652;2023-01-09T00:01:41;0.90;;;0.80;;
51179;SDS011;37243;49.814;8.652;2023-01-09T00:04:14;0.60;;;0.60;;
51179;SDS011;37243;49.814;8.652;2023-01-09T00:06:43;1.02;;;0.80;;
51179;SDS011;37243;49.814;8.652;2023-01-09T00:09:17;0.90;;;0.85;;
51179;SDS011;37243;49.814;8.652;2023-01-09T00:11:47;0.70;;;0.70;;
51179;SDS011;37243;49.814;8.652;2023-01-09T00:14:16;0.57;;;0.57;;
51179;SDS011;37243;49.814;8.652;2023-01-09T00:16:44;0.70;;;0.70;;
51179;SDS011;37243;49.814;8.652;2023-01-09T00:19:16;0.80;;;0.80;;
51179;SDS011;37243;49.814;8.652;2023-01-09T00:21:44;0.60;;;0.60;;
51179;SDS011;37243;49.814;8.652;2023-01-09T00:24:13;1.13;;;1.02;;
51179;SDS011;37243;49.814;8.652;2023-01-09T00:26:41;0.77;;;0.70;;
51179;SDS011;37243;49.814;8.652;2023-01-09T00:29:13;0.90;;;0.85;;
51179;SDS011;37243;49.814;8.652;2023-01-09T00:31:41;0.63;;;0.63;;
51179;SDS011;37243;49.814;8.652;2023-01-09T00:34:10;0.95;;;0.95;;
51179;SDS011;37243;49.814;8.652;2023-01-09T00:46:23;0.80;;;0.80;;
51179;SDS011;37243;49.814;8.652;2023-01-09T00:48:54;0.90;;;0.80;;
51179;SDS011;37243;49.814;8.652;2023-01-09T00:51:22;0.75;;;0.75;;
51179;SDS011;37243;49.814;8.652;2023-01-09T00:53:51;0.88;;;0.88;;
51179;SDS011;37243;49.814;8.652;2023-01-09T00:56:22;0.80;;;0.80;;
51179;SDS011;37243;49.814;8.652;2023-01-09T00:58:53;0.77;;;0.77;;
51179;SDS011;37243;49.814;8.652;2023-01-09T01:01:22;0.90;;;0.88;;
51179;SDS011;37243;49.814;8.652;2023-01-09T01:03:51;0.70;;;0.70;;
51179;SDS011;37243;49.814;8.652;2023-01-09T01:06:19;0.90;;;0.90;;
51179;SDS011;37243;49.814;8.652;2023-01-09T01:09:00;0.82;;;0.77;;
51179;SDS011;37243;49.814;8.652;2023-01-09T01:11:30;0.70;;;0.70;;
51179;SDS011;37243;49.814;8.652;2023-01-09T01:14:03;0.70;;;0.70;;
51179;SDS011;37243;49.814;8.652;2023-01-09T01:16:31;1.10;;;1.00;;
51179;SDS011;37243;49.814;8.652;2023-01-09T01:18:59;0.70;;;0.70;;
51179;SDS011;37243;49.814;8.652;2023-01-09T01:21:28;0.65;;;0.65;;
51179;SDS011;37243;49.814;8.652;2023-01-09T01:23:59;0.80;;;0.80;;
51179;SDS011;37243;49.814;8.652;2023-01-09T01:26:28;0.63;;;0.63;;
51179;SDS011;37243;49.814;8.652;2023-01-09T01:28:57;0.60;;;0.60;;
51179;SDS011;37243;49.814;8.652;2023-01-09T01:31:28;0.60;;;0.60;;
51179;SDS011;37243;49.814;8.652;2023-01-09T01:33:57;0.70;;;0.70;;
51179;SDS011;37243;49.814;8.652;2023-01-09T01:36:25;0.75;;;0.75;;
51179;SDS011;37243;49.814;8.652;2023-01-09T01:38:54;0.80;;;0.80;;
51179;SDS011;37243;49.814;8.652;2023-01-09T01:41:22;0.80;;;0.80;;
51179;SDS011;37243;49.814;8.652;2023-01-09T01:43:56;0.70;;;0.70;;
51179;SDS011;37243;49.814;8.652;2023-01-09T01:46:31;0.68;;;0.68;;
51179;SDS011;37243;49.814;8.652;2023-01-09T01:49:03;0.73;;;0.73;;
51179;SDS011;37243;49.814;8.652;2023-01-09T01:51:35;0.60;;;0.60;;
51179;SDS011;37243;49.814;8.652;2023-01-09T01:54:07;0.75;;;0.75;;
51179;SDS011;37243;49.814;8.652;2023-01-09T01:56:41;0.75;;;0.75;;
51179;SDS011;37243;49.814;8.652;2023-01-09T01:59:16;0.80;;;0.80;;
51179;SDS011;37243;49.814;8.652;2023-01-09T02:01:51;0.60;;;0.60;;
51179;SDS011;37243;49.814;8.652;2023-01-09T02:04:22;0.75;;;0.75;;
51179;SDS011;37243;49.814;8.652;2023-01-09T02:06:50;0.70;;;0.70;;
51179;SDS011;37243;49.814;8.652;2023-01-09T02:09:21;0.60;;;0.60;;
51179;SDS011;37243;49.814;8.652;2023-01-09T02:11:55;1.15;;;0.68;;
51179;SDS011;37243;49.814;8.652;2023-01-09T02:14:28;0.60;;;0.60;;
51179;SDS011;37243;49.814;8.652;2023-01-09T02:17:04;0.60;;;0.60;;
51179;SDS011;37243;49.814;8.652;2023-01-09T02:19:49;0.50;;;0.50;;
51179;SDS011;37243;49.814;8.652;2023-01-09T02:22:39;1.15;;;0.82;;
51179;SDS011;37243;49.814;8.652;2023-01-09T02:25:29;0.55;;;0.55;;
51179;SDS011;37243;49.814;8.652;2023-01-09T02:28:16;0.50;;;0.50;;
51179;SDS011;37243;49.814;8.652;2023-01-09T02:31:02;0.68;;;0.68;;
51179;SDS011;37243;49.814;8.652;2023-01-09T02:33:39;0.63;;;0.63;;
51179;SDS011;37243;49.814;8.652;2023-01-09T02:36:19;0.82;;;0.82;;
51179;SDS011;37243;49.814;8.652;2023-01-09T02:38:58;0.60;;;0.60;;
51179;SDS011;37243;49.814;8.652;2023-01-09T02:41:42;0.60;;;0.60;;
51179;SDS011;37243;49.814;8.652;2023-01-09T02:44:16;0.57;;;0.57;;
51179;SDS011;37243;49.814;8.652;2023-01-09T02:46:58;0.85;;;0.70;;
51179;SDS011;37243;49.814;8.652;2023-01-09T02:49:27;0.68;;;0.68;;
51179;SDS011;37243;49.814;8.652;2023-01-09T02:51:59;0.70;;;0.70;;
51179;SDS011;37243;49.814;8.652;2023-01-09T02:54:39;0.52;;;0.52;;
51179;SDS011;37243;49.814;8.652;2023-01-09T02:57:26;0.70;;;0.70;;
51179;SDS011;37243;49.814;8.652;2023-01-09T03:00:03;0.70;;;0.70;;
51179;SDS011;37243;49.814;8.652;2023-01-09T03:02:42;0.60;;;0.60;;
51179;SDS011;37243;49.814;8.652;2023-01-09T03:05:20;0.63;;;0.63;;
51179;SDS011;37243;49.814;8.652;2023-01-09T03:08:00;0.98;;;0.98;;
51179;SDS011;37243;49.814;8.652;2023-01-09T03:10:35;0.60;;;0.60;;
51179;SDS011;37243;49.814;8.652;2023-01-09T03:13:08;0.47;;;0.47;;
51179;SDS011;37243;49.814;8.652;2023-01-09T03:15:43;0.57;;;0.57;;
51179;SDS011;37243;49.814;8.652;2023-01-09T03:21:27;0.60;;;0.60;;
51179;SDS011;37243;49.814;8.652;2023-01-09T03:30:24;0.65;;;0.63;;
51179;SDS011;37243;49.814;8.652;2023-01-09T03:32:54;1.85;;;0.60;;
51179;SDS011;37243;49.814;8.652;2023-01-09T03:35:22;0.68;;;0.68;;
51179;SDS011;37243;49.814;8.652;2023-01-09T03:37:54;0.57;;;0.57;;
51179;SDS011;37243;49.814;8.652;2023-01-09T03:40:23;0.50;;;0.50;;
51179;SDS011;37243;49.814;8.652;2023-01-09T03:42:51;0.80;;;0.80;;
51179;SDS011;37243;49.814;8.652;2023-01-09T03:45:22;0.93;;;0.60;;
51179;SDS011;37243;49.814;8.652;2023-01-09T03:47:51;0.60;;;0.60;;
51179;SDS011;37243;49.814;8.652;2023-01-09T03:50:22;0.40;;;0.40;;
51179;SDS011;37243;49.814;8.652;2023-01-09T03:52:54;0.70;;;0.70;;
51179;SDS011;37243;49.814;8.652;2023-01-09T03:55:22;0.50;;;0.50;;
51179;SDS011;37243;49.814;8.652;2023-01-09T03:57:50;0.60;;;0.60;;
51179;SDS011;37243;49.814;8.652;2023-01-09T04:00:19;0.60;;;0.60;;
51179;SDS011;37243;49.814;8.652;2023-01-09T04:02:48;0.80;;;0.80;;
51179;SDS011;37243;49.814;8.652;2023-01-09T04:05:17;0.50;;;0.50;;
51179;SDS011;37243;49.814;8.652;2023-01-09T04:07:45;0.60;;;0.60;;
51179;SDS011;37243;49.814;8.652;2023-01-09T04:10:16;0.60;;;0.60;;
51179;SDS011;37243;49.814;8.652;2023-01-09T04:12:45;0.68;;;0.68;;
51179;SDS011;37243;49.814;8.652;2023-01-09T04:15:13;0.50;;;0.50;;
51179;SDS011;37243;49.814;8.652;2023-01-09T04:17:42;0.60;;;0.60;;
51179;SDS011;37243;49.814;8.652;2023-01-09T04:20:10;0.68;;;0.68;;
51179;SDS011;37243;49.814;8.652;2023-01-09T04:22:41;1.33;;;0.63;;
51179;SDS011;37243;49.814;8.652;2023-01-09T04:25:09;0.57;;;0.57;;
51179;SDS011;37243;49.814;8.652;2023-01-09T04:27:41;0.43;;;0.43;;
51179;SDS011;37243;49.814;8.652;2023-01-09T04:30:09;0.50;;;0.50;;
51179;SDS011;37243;49.814;8.652;2023-01-09T04:32:41;0.52;;;0.52;;
51179;SDS011;37243;49.814;8.652;2023-01-09T04:35:09;0.50;;;0.50;;
51179;SDS011;37243;49.814;8.652;2023-01-09T04:37:38;0.60;;;0.60;;
51179;SDS011;37243;49.814;8.652;2023-01-09T04:40:07;0.45;;;0.45;;
51179;SDS011;37243;49.814;8.652;2023-01-09T04:42:40;0.50;;;0.50;;
51179;SDS011;37243;49.814;8.652;2023-01-09T04:45:11;0.70;;;0.70;;
51179;SDS011;37243;49.814;8.652;2023-01-09T04:47:41;0.40;;;0.40;;
51179;SDS011;37243;49.814;8.652;2023-01-09T04:50:10;0.40;;;0.40;;
51179;SDS011;37243;49.814;8.652;2023-01-09T04:52:39;0.50;;;0.50;;
51179;SDS011;37243;49.814;8.652;2023-01-09T04:55:08;0.60;;;0.60;;
51179;SDS011;37243;49.814;8.652;2023-01-09T04:57:36;0.52;;;0.52;;
51179;SDS011;37243;49.814;8.652;2023-01-09T05:00:09;0.50;;;0.50;;
51179;SDS011;37243;49.814;8.652;2023-01-09T05:02:38;0.60;;;0.60;;
51179;SDS011;37243;49.814;8.652;2023-01-09T05:05:07;0.55;;;0.55;;
51179;SDS011;37243;49.814;8.652;2023-01-09T05:07:36;0.35;;;0.35;;
51179;SDS011;37243;49.814;8.652;2023-01-09T05:10:06;0.60;;;0.60;;
51179;SDS011;37243;49.814;8.652;2023-01-09T05:12:35;0.60;;;0.60;;
51179;SDS011;37243;49.814;8.652;2023-01-09T05:15:05;0.70;;;0.70;;
51179;SDS011;37243;49.814;8.652;2023-01-09T05:17:36;0.40;;;0.40;;
51179;SDS011;37243;49.814;8.652;2023-01-09T05:20:05;0.40;;;0.40;;
51179;SDS011;37243;49.814;8.652;2023-01-09T05:22:34;0.50;;;0.50;;
51179;SDS011;37243;49.814;8.652;2023-01-09T05:25:02;0.65;;;0.65;;
51179;SDS011;37243;49.814;8.652;2023-01-09T05:27:31;0.50;;;0.50;;
51179;SDS011;37243;49.814;8.652;2023-01-09T05:29:59;0.50;;;0.50;;
51179;SDS011;37243;49.814;8.652;2023-01-09T05:32:30;0.43;;;0.43;;
51179;SDS011;37243;49.814;8.652;2023-01-09T05:34:58;0.30;;;0.30;;
51179;SDS011;37243;49.814;8.652;2023-01-09T05:37:26;0.57;;;0.50;;
51179;SDS011;37243;49.814;8.652;2023-01-09T05:39:54;1.20;;;0.40;;
51179;SDS011;37243;49.814;8.652;2023-01-09T05:42:23;0.30;;;0.30;;
51179;SDS011;37243;49.814;8.652;2023-01-09T05:44:51;0.45;;;0.45;;
51179;SDS011;37243;49.814;8.652;2023-01-09T05:47:19;0.60;;;0.60;;
51179;SDS011;37243;49.814;8.652;2023-01-09T05:49:50;0.50;;;0.50;;
51179;SDS011;37243;49.814;8.652;2023-01-09T05:52:20;0.50;;;0.50;;
51179;SDS011;37243;49.814;8.652;2023-01-09T05:54:48;0.50;;;0.50;;
51179;SDS011;37243;49.814;8.652;2023-01-09T05:57:17;0.57;;;0.45;;
51179;SDS011;37243;49.814;8.652;2023-01-09T05:59:45;0.52;;;0.52;;
51179;SDS011;37243;49.814;8.652;2023-01-09T06:02:13;0.60;;;0.60;;
51179;SDS011;37243;49.814;8.652;2023-01-09T06:04:42;0.45;;;0.45;;
51179;SDS011;37243;49.814;8.652;2023-01-09T06:07:13;1.08;;;0.73;;
51179;SDS011;37243;49.814;8.652;2023-01-09T06:09:44;1.85;;;0.65;;
51179;SDS011;37243;49.814;8.652;2023-01-09T06:12:12;0.45;;;0.45;;
51179;SDS011;37243;49.814;8.652;2023-01-09T06:14:40;0.80;;;0.80;;
51179;SDS011;37243;49.814;8.652;2023-01-09T06:17:09;0.93;;;0.60;;
51179;SDS011;37243;49.814;8.652;2023-01-09T06:19:37;0.70;;;0.60;;
51179;SDS011;37243;49.814;8.652;2023-01-09T06:22:05;0.50;;;0.50;;
51179;SDS011;37243;49.814;8.652;2023-01-09T06:24:36;1.08;;;0.50;;
51179;SDS011;37243;49.814;8.652;2023-01-09T06:30:15;0.68;;;0.63;;
51179;SDS011;37243;49.814;8.652;2023-01-09T06:32:44;0.70;;;0.70;;
51179;SDS011;37243;49.814;8.652;2023-01-09T06:35:14;1.80;;;0.63;;
51179;SDS011;37243;49.814;8.652;2023-01-09T06:37:44;0.70;;;0.70;;
51179;SDS011;37243;49.814;8.652;2023-01-09T06:40:16;6.32;;;1.20;;
51179;SDS011;37243;49.814;8.652;2023-01-09T06:42:45;5.15;;;1.10;;
51179;SDS011;37243;49.814;8.652;2023-01-09T06:45:15;2.92;;;1.10;;
51179;SDS011;37243;49.814;8.652;2023-01-09T06:47:43;3.38;;;1.17;;
51179;SDS011;37243;49.814;8.652;2023-01-09T06:50:14;2.58;;;0.85;;
51179;SDS011;37243;49.814;8.652;2023-01-09T06:52:42;2.92;;;1.10;;
51179;SDS011;37243;49.814;8.652;2023-01-09T06:55:38;3.33;;;0.90;;
51179;SDS011;37243;49.814;8.652;2023-01-09T06:58:51;1.92;;;1.15;;
51179;SDS011;37243;49.814;8.652;2023-01-09T07:01:19;2.83;;;0.98;;
51179;SDS011;37243;49.814;8.652;2023-01-09T07:03:48;3.15;;;0.98;;
51179;SDS011;37243;49.814;8.652;2023-01-09T07:06:16;1.67;;;1.05;;
51179;SDS011;37243;49.814;8.652;2023-01-09T07:08:44;2.90;;;0.82;;
51179;SDS011;37243;49.814;8.652;2023-01-09T07:11:15;2.83;;;0.80;;
51179;SDS011;37243;49.814;8.652;2023-01-09T07:14:15;0.73;;;0.70;;
51179;SDS011;37243;49.814;8.652;2023-01-09T07:16:43;1.35;;;0.90;;
51179;SDS011;37243;49.814;8.652;2023-01-09T07:19:12;1.70;;;1.10;;
51179;SDS011;37243;49.814;8.652;2023-01-09T07:21:40;0.68;;;0.68;;
51179;SDS011;37243;49.814;8.652;2023-01-09T07:24:08;1.33;;;0.82;;
51179;SDS011;37243;49.814;8.652;2023-01-09T07:26:39;2.83;;;0.70;;
51179;SDS011;37243;49.814;8.652;2023-01-09T07:55:07;2.55;;;0.70;;
51179;SDS011;37243;49.814;8.652;2023-01-09T07:57:36;0.77;;;0.77;;
51179;SDS011;37243;49.814;8.652;2023-01-09T08:00:05;1.55;;;0.75;;
51179;SDS011;37243;49.814;8.652;2023-01-09T08:02:35;2.58;;;0.98;;
51179;SDS011;37243;49.814;8.652;2023-01-09T08:05:04;1.60;;;0.70;;
51179;SDS011;37243;49.814;8.652;2023-01-09T08:07:33;1.90;;;0.70;;
51179;SDS011;37243;49.814;8.652;2023-01-09T08:10:01;1.67;;;0.77;;
51179;SDS011;37243;49.814;8.652;2023-01-09T08:12:32;1.23;;;0.90;;
51179;SDS011;37243;49.814;8.652;2023-01-09T08:15:01;0.90;;;0.70;;
51179;SDS011;37243;49.814;8.652;2023-01-09T08:17:33;1.05;;;0.70;;
51179;SDS011;37243;49.814;8.652;2023-01-09T08:23:38;1.85;;;0.80;;
51179;SDS011;37243;49.814;8.652;2023-01-09T08:26:30;1.17;;;0.80;;
51179;SDS011;37243;49.814;8.652;2023-01-09T08:29:01;1.60;;;0.70;;
51179;SDS011;37243;49.814;8.652;2023-01-09T08:31:30;3.50;;;0.95;;
51179;SDS011;37243;49.814;8.652;2023-01-09T08:33:59;2.58;;;0.95;;
51179;SDS011;37243;49.814;8.652;2023-01-09T08:36:27;1.80;;;1.00;;
51179;SDS011;37243;49.814;8.652;2023-01-09T08:38:55;0.50;;;0.50;;
51179;SDS011;37243;49.814;8.652;2023-01-09T08:41:23;1.45;;;0.80;;
51179;SDS011;37243;49.814;8.652;2023-01-09T08:44:07;0.77;;;0.77;;
51179;SDS011;37243;49.814;8.652;2023-01-09T08:46:48;1.52;;;1.00;;
51179;SDS011;37243;49.814;8.652;2023-01-09T08:49:28;0.88;;;0.80;;
51179;SDS011;37243;49.814;8.652;2023-01-09T08:51:57;0.70;;;0.63;;
51179;SDS011;37243;49.814;8.652;2023-01-09T08:54:25;0.85;;;0.73;;
51179;SDS011;37243;49.814;8.652;2023-01-09T08:56:53;1.38;;;0.77;;
51179;SDS011;37243;49.814;8.652;2023-01-09T08:59:24;0.88;;;0.80;;
51179;SDS011;37243;49.814;8.652;2023-01-09T09:01:53;0.85;;;0.73;;
51179;SDS011;37243;49.814;8.652;2023-01-09T09:04:21;1.40;;;0.80;;
51179;SDS011;37243;49.814;8.652;2023-01-09T09:06:49;1.50;;;0.90;;
51179;SDS011;37243;49.814;8.652;2023-01-09T09:09:17;1.70;;;0.70;;
51179;SDS011;37243;49.814;8.652;2023-01-09T09:11:46;0.95;;;0.82;;
51179;SDS011;37243;49.814;8.652;2023-01-09T09:14:14;1.45;;;0.93;;
51179;SDS011;37243;49.814;8.652;2023-01-09T09:16:57;0.98;;;0.73;;
51179;SDS011;37243;49.814;8.652;2023-01-09T09:19:26;1.92;;;0.90;;
51179;SDS011;37243;49.814;8.652;2023-01-09T09:21:54;1.58;;;0.98;;
51179;SDS011;37243;49.814;8.652;2023-01-09T09:24:22;1.33;;;0.80;;
51179;SDS011;37243;49.814;8.652;2023-01-09T09:26:50;2.10;;;0.88;;
51179;SDS011;37243;49.814;8.652;2023-01-09T09:29:19;0.82;;;0.70;;
51179;SDS011;37243;49.814;8.652;2023-01-09T09:31:47;1.05;;;0.80;;
51179;SDS011;37243;49.814;8.652;2023-01-09T09:34:18;1.38;;;0.80;;
51179;SDS011;37243;49.814;8.652;2023-01-09T09:36:47;1.02;;;0.90;;
51179;SDS011;37243;49.814;8.652;2023-01-09T09:39:15;2.35;;;0.80;;
51179;SDS011;37243;49.814;8.652;2023-01-09T09:41:49;1.75;;;1.00;;
51179;SDS011;37243;49.814;8.652;2023-01-09T09:44:55;1.20;;;1.02;;
51179;SDS011;37243;49.814;8.652;2023-01-09T09:47:36;1.73;;;1.13;;
51179;SDS011;37243;49.814;8.652;2023-01-09T09:50:17;1.08;;;0.98;;
51179;SDS011;37243;49.814;8.652;2023-01-09T09:52:55;1.20;;;1.10;;
51179;SDS011;37243;49.814;8.652;2023-01-09T09:55:31;1.40;;;0.85;;
51179;SDS011;37243;49.814;8.652;2023-01-09T09:58:03;1.08;;;0.98;;
51179;SDS011;37243;49.814;8.652;2023-01-09T10:00:34;1.90;;;1.10;;
51179;SDS011;37243;49.814;8.652;2023-01-09T10:03:03;1.35;;;1.00;;
51179;SDS011;37243;49.814;8.652;2023-01-09T10:05:38;1.10;;;1.10;;
51179;SDS011;37243;49.814;8.652;2023-01-09T10:08:12;1.15;;;1.00;;
51179;SDS011;37243;49.814;8.652;2023-01-09T10:10:47;0.90;;;0.90;;
51179;SDS011;37243;49.814;8.652;2023-01-09T10:13:21;1.52;;;0.95;;
51179;SDS011;37243;49.814;8.652;2023-01-09T10:16:05;1.25;;;0.80;;
51179;SDS011;37243;49.814;8.652;2023-01-09T10:18:49;2.13;;;1.00;;
51179;SDS011;37243;49.814;8.652;2023-01-09T10:21:30;2.10;;;0.85;;
51179;SDS011;37243;49.814;8.652;2023-01-09T10:24:11;2.10;;;1.20;;
51179;SDS011;37243;49.814;8.652;2023-01-09T10:26:50;1.40;;;1.00;;
51179;SDS011;37243;49.814;8.652;2023-01-09T10:32:11;1.20;;;1.00;;
51179;SDS011;37243;49.814;8.652;2023-01-09T10:34:53;1.50;;;0.90;;
51179;SDS011;37243;49.814;8.652;2023-01-09T10:37:31;1.30;;;1.00;;
51179;SDS011;37243;49.814;8.652;2023-01-09T10:40:06;1.77;;;1.10;;
51179;SDS011;37243;49.814;8.652;2023-01-09T10:42:45;1.63;;;1.15;;
51179;SDS011;37243;49.814;8.652;2023-01-09T10:45:19;1.05;;;0.95;;
51179;SDS011;37243;49.814;8.652;2023-01-09T10:47:51;1.50;;;0.88;;
51179;SDS011;37243;49.814;8.652;2023-01-09T10:50:27;1.00;;;0.90;;
51179;SDS011;37243;49.814;8.652;2023-01-09T10:53:03;0.80;;;0.80;;
51179;SDS011;37243;49.814;8.652;2023-01-09T10:55:41;1.67;;;1.00;;
51179;SDS011;37243;49.814;8.652;2023-01-09T10:58:12;1.30;;;1.13;;
51179;SDS011;37243;49.814;8.652;2023-01-09T11:00:42;1.08;;;0.95;;
51179;SDS011;37243;49.814;8.652;2023-01-09T11:03:12;2.25;;;0.90;;
51179;SDS011;37243;49.814;8.652;2023-01-09T11:05:41;1.17;;;1.05;;
51179;SDS011;37243;49.814;8.652;2023-01-09T11:08:14;1.55;;;1.30;;
51179;SDS011;37243;49.814;8.652;2023-01-09T11:10:51;0.60;;;0.60;;
51179;SDS011;37243;49.814;8.652;2023-01-09T11:13:21;1.70;;;1.15;;
51179;SDS011;37243;49.814;8.652;2023-01-09T11:15:59;1.13;;;1.00;;
51179;SDS011;37243;49.814;8.652;2023-01-09T11:18:29;0.80;;;0.80;;
51179;SDS011;37243;49.814;8.652;2023-01-09T11:21:11;1.45;;;1.10;;
51179;SDS011;37243;49.814;8.652;2023-01-09T11:23:55;1.48;;;0.90;;
51179;SDS011;37243;49.814;8.652;2023-01-09T11:26:34;1.45;;;0.90;;
51179;SDS011;37243;49.814;8.652;2023-01-09T11:29:03;1.60;;;1.02;;
51179;SDS011;37243;49.814;8.652;2023-01-09T11:31:33;2.60;;;1.20;;
51179;SDS011;37243;49.814;8.652;2023-01-09T11:34:02;1.67;;;0.90;;
51179;SDS011;37243;49.814;8.652;2023-01-09T11:36:31;1.63;;;0.90;;
51179;SDS011;37243;49.814;8.652;2023-01-09T11:39:02;2.35;;;1.23;;
51179;SDS011;37243;49.814;8.652;2023-01-09T11:41:32;1.55;;;1.10;;
51179;SDS011;37243;49.814;8.652;2023-01-09T11:44:02;1.40;;;1.30;;
51179;SDS011;37243;49.814;8.652;2023-01-09T11:46:32;1.13;;;1.02;;
51179;SDS011;37243;49.814;8.652;2023-01-09T11:49:07;1.20;;;1.00;;
51179;SDS011;37243;49.814;8.652;2023-01-09T11:52:03;2.97;;;1.10;;
51179;SDS011;37243;49.814;8.652;2023-01-09T11:54:43;1.08;;;0.98;;
51179;SDS011;37243;49.814;8.652;2023-01-09T11:57:16;1.80;;;1.30;;
51179;SDS011;37243;49.814;8.652;2023-01-09T11:59:44;2.97;;;1.17;;
51179;SDS011;37243;49.814;8.652;2023-01-09T12:02:24;2.10;;;1.25;;
51179;SDS011;37243;49.814;8.652;2023-01-09T12:05:10;1.48;;;1.35;;
51179;SDS011;37243;49.814;8.652;2023-01-09T12:07:52;1.88;;;1.30;;
51179;SDS011;37243;49.814;8.652;2023-01-09T12:13:40;1.65;;;1.20;;
51179;SDS011;37243;49.814;8.652;2023-01-09T12:16:23;2.25;;;1.35;;
51179;SDS011;37243;49.814;8.652;2023-01-09T12:19:03;1.67;;;1.13;;
51179;SDS011;37243;49.814;8.652;2023-01-09T12:21:44;1.38;;;1.27;;
51179;SDS011;37243;49.814;8.652;2023-01-09T12:24:26;1.52;;;1.25;;
51179;SDS011;37243;49.814;8.652;2023-01-09T12:27:11;2.03;;;1.20;;
51179;SDS011;37243;49.814;8.652;2023-01-09T12:29:58;1.83;;;1.30;;
51179;SDS011;37243;49.814;8.652;2023-01-09T12:32:45;1.58;;;1.35;;
51179;SDS011;37243;49.814;8.652;2023-01-09T12:35:27;1.48;;;1.20;;
51179;SDS011;37243;49.814;8.652;2023-01-09T12:38:10;1.10;;;1.00;;
51179;SDS011;37243;49.814;8.652;2023-01-09T12:40:59;1.25;;;1.25;;
51179;SDS011;37243;49.814;8.652;2023-01-09T12:43:38;1.20;;;1.10;;
51179;SDS011;37243;49.814;8.652;2023-01-09T12:46:19;1.35;;;1.00;;
51179;SDS011;37243;49.814;8.652;2023-01-09T12:48:58;1.13;;;0.90;;
51179;SDS011;37243;49.814;8.652;2023-01-09T12:51:42;1.17;;;1.08;;
51179;SDS011;37243;49.814;8.652;2023-01-09T12:54:15;1.35;;;1.00;;
51179;SDS011;37243;49.814;8.652;2023-01-09T12:56:51;1.63;;;1.02;;
51179;SDS011;37243;49.814;8.652;2023-01-09T12:59:25;1.38;;;1.23;;
51179;SDS011;37243;49.814;8.652;2023-01-09T13:02:02;1.33;;;0.98;;
51179;SDS011;37243;49.814;8.652;2023-01-09T13:04:38;1.20;;;1.10;;
51179;SDS011;37243;49.814;8.652;2023-01-09T13:07:12;1.25;;;1.15;;
51179;SDS011;37243;49.814;8.652;2023-01-09T13:09:48;1.20;;;1.10;;
51179;SDS011;37243;49.814;8.652;2023-01-09T13:12:20;1.38;;;1.20;;
51179;SDS011;37243;49.814;8.652;2023-01-09T13:14:52;1.73;;;1.08;;
51179;SDS011;37243;49.814;8.652;2023-01-09T13:17:28;0.95;;;0.90;;
51179;SDS011;37243;49.814;8.652;2023-01-09T13:19:58;1.38;;;1.17;;
51179;SDS011;37243;49.814;8.652;2023-01-09T13:22:27;1.38;;;1.10;;
51179;SDS011;37243;49.814;8.652;2023-01-09T13:27:54;1.38;;;1.10;;
51179;SDS011;37243;49.814;8.652;2023-01-09T13:30:35;1.23;;;1.13;;
51179;SDS011;37243;49.814;8.652;2023-01-09T13:33:18;0.95;;;0.85;;
51179;SDS011;37243;49.814;8.652;2023-01-09T13:35:51;1.73;;;0.90;;
51179;SDS011;37243;49.814;8.652;2023-01-09T13:38:22;1.00;;;1.00;;
51179;SDS011;37243;49.814;8.652;2023-01-09T13:41:03;1.30;;;1.13;;
51179;SDS011;37243;49.814;8.652;2023-01-09T13:43:53;1.85;;;1.30;;
51179;SDS011;37243;49.814;8.652;2023-01-09T13:46:30;1.67;;;1.20;;
51179;SDS011;37243;49.814;8.652;2023-01-09T13:49:04;1.77;;;0.90;;
51179;SDS011;37243;49.814;8.652;2023-01-09T13:51:36;3.40;;;1.40;;
51179;SDS011;37243;49.814;8.652;2023-01-09T13:57:26;3.67;;;1.38;;
51179;SDS011;37243;49.814;8.652;2023-01-09T13:59:57;1.83;;;1.35;;
51179;SDS011;37243;49.814;8.652;2023-01-09T14:02:52;2.72;;;1.23;;
51179;SDS011;37243;49.814;8.652;2023-01-09T14:08:24;6.20;;;1.40;;
51179;SDS011;37243;49.814;8.652;2023-01-09T14:10:55;4.25;;;1.38;;
51179;SDS011;37243;49.814;8.652;2023-01-09T14:13:26;3.80;;;1.10;;
51179;SDS011;37243;49.814;8.652;2023-01-09T14:16:00;1.65;;;1.20;;
51179;SDS011;37243;49.814;8.652;2023-01-09T14:18:31;1.55;;;1.10;;
51179;SDS011;37243;49.814;8.652;2023-01-09T14:21:03;5.30;;;1.52;;
51179;SDS011;37243;49.814;8.652;2023-01-09T14:23:36;2.03;;;1.00;;
51179;SDS011;37243;49.814;8.652;2023-01-09T14:26:07;1.48;;;0.90;;
51179;SDS011;37243;49.814;8.652;2023-01-09T14:28:44;4.05;;;1.05;;
51179;SDS011;37243;49.814;8.652;2023-01-09T14:31:25;2.05;;;1.02;;
51179;SDS011;37243;49.814;8.652;2023-01-09T14:36:51;3.25;;;1.20;;
51179;SDS011;37243;49.814;8.652;2023-01-09T14:39:24;2.15;;;1.20;;
51179;SDS011;37243;49.814;8.652;2023-01-09T14:41:54;2.65;;;1.40;;
51179;SDS011;37243;49.814;8.652;2023-01-09T14:44:31;2.08;;;1.20;;
51179;SDS011;37243;49.814;8.652;2023-01-09T14:47:13;2.88;;;1.23;;
51179;SDS011;37243;49.814;8.652;2023-01-09T14:49:46;1.92;;;1.23;;
51179;SDS011;37243;49.814;8.652;2023-01-09T14:52:20;2.03;;;1.20;;
51179;SDS011;37243;49.814;8.652;2023-01-09T14:54:56;1.65;;;1.20;;
51179;SDS011;37243;49.814;8.652;2023-01-09T14:57:28;4.72;;;1.20;;
51179;SDS011;37243;49.814;8.652;2023-01-09T14:59:58;4.38;;;1.25;;
51179;SDS011;37243;49.814;8.652;2023-01-09T15:02:28;2.25;;;1.27;;
51179;SDS011;37243;49.814;8.652;2023-01-09T15:05:00;1.10;;;0.90;;
51179;SDS011;37243;49.814;8.652;2023-01-09T15:07:33;5.38;;;1.20;;
51179;SDS011;37243;49.814;8.652;2023-01-09T15:10:13;3.03;;;1.25;;
51179;SDS011;37243;49.814;8.652;2023-01-09T15:12:45;2.13;;;1.00;;
51179;SDS011;37243;49.814;8.652;2023-01-09T15:15:16;1.77;;;1.00;;
51179;SDS011;37243;49.814;8.652;2023-01-09T15:17:47;1.52;;;1.10;;
51179;SDS011;37243;49.814;8.652;2023-01-09T15:20:22;3.80;;;1.23;;
51179;SDS011;37243;49.814;8.652;2023-01-09T15:22:54;3.72;;;1.30;;
51179;SDS011;37243;49.814;8.652;2023-01-09T15:25:27;1.35;;;1.05;;
51179;SDS011;37243;49.814;8.652;2023-01-09T15:27:59;1.58;;;1.20;;
51179;SDS011;37243;49.814;8.652;2023-01-09T15:30:29;1.10;;;1.00;;
51179;SDS011;37243;49.814;8.652;2023-01-09T15:33:01;1.95;;;0.90;;
51179;SDS011;37243;49.814;8.652;2023-01-09T15:35:32;3.08;;;1.23;;
51179;SDS011;37243;49.814;8.652;2023-01-09T15:38:01;1.30;;;0.98;;
51179;SDS011;37243;49.814;8.652;2023-01-09T15:40:32;2.00;;;1.05;;
51179;SDS011;37243;49.814;8.652;2023-01-09T15:43:01;2.42;;;0.98;;
51179;SDS011;37243;49.814;8.652;2023-01-09T15:45:32;1.85;;;1.10;;
51179;SDS011;37243;49.814;8.652;2023-01-09T15:48:20;1.77;;;1.10;;
51179;SDS011;37243;49.814;8.652;2023-01-09T15:50:51;0.95;;;0.80;;
51179;SDS011;37243;49.814;8.652;2023-01-09T15:53:22;1.00;;;0.90;;
51179;SDS011;37243;49.814;8.652;2023-01-09T15:56:12;1.75;;;0.90;;
51179;SDS011;37243;49.814;8.652;2023-01-09T15:58:43;4.25;;;1.10;;
51179;SDS011;37243;49.814;8.652;2023-01-09T16:01:23;1.23;;;0.80;;
51179;SDS011;37243;49.814;8.652;2023-01-09T16:03:55;1.25;;;1.10;;
51179;SDS011;37243;49.814;8.652;2023-01-09T16:06:30;1.23;;;1.00;;
51179;SDS011;37243;49.814;8.652;2023-01-09T16:09:01;2.38;;;1.02;;
51179;SDS011;37243;49.814;8.652;2023-01-09T16:11:35;1.80;;;1.10;;
51179;SDS011;37243;49.814;8.652;2023-01-09T16:14:09;1.60;;;1.15;;
51179;SDS011;37243;49.814;8.652;2023-01-09T16:16:40;1.10;;;0.80;;
51179;SDS011;37243;49.814;8.652;2023-01-09T16:21:57;1.05;;;0.95;;
51179;SDS011;37243;49.814;8.652;2023-01-09T16:24:27;1.58;;;1.00;;
51179;SDS011;37243;49.814;8.652;2023-01-09T16:29:55;2.08;;;1.00;;
51179;SDS011;37243;49.814;8.652;2023-01-09T16:32:25;3.00;;;1.33;;
51179;SDS011;37243;49.814;8.652;2023-01-09T16:34:56;2.03;;;0.90;;
51179;SDS011;37243;49.814;8.652;2023-01-09T16:37:26;3.25;;;1.23;;
51179;SDS011;37243;49.814;8.652;2023-01-09T16:40:13;3.13;;;1.27;;